sensor_id;sensor_type;location;lat;lon;timestamp;temperature;humidity
17740;DHT22;8990;33.226;-97.150;2022-07-22T00:01:31;36.60;99.90
17740;DHT22;8990;33.226;-97.150;2022-07-22T00:04:01;36.50;99.90
17740;DHT22;8990;33.226;-97.150;2022-07-22T00:06:30;36.40;99.90
17740;DHT22;8990;33.226;-97.150;2022-07-22T00:08:59;36.40;99.90
17740;DHT22;8990;33.226;-97.150;2022-07-22T00:11:29;36.30;99.90
17740;DHT22;8990;33.226;-97.150;2022-07-22T00:13:59;36.40;99.90
17740;DHT22;8990;33.226;-97.150;2022-07-22T00:16:28;36.50;99.90
17740;DHT22;8990;33.226;-97.150;2022-07-22T00:18:57;36.40;99.90
17740;DHT22;8990;33.226;-97.150;2022-07-22T00:21:27;36.40;99.90
17740;DHT22;8990;33.226;-97.150;2022-07-22T00:23:56;36.50;99.90
17740;DHT22;8990;33.226;-97.150;2022-07-22T00:26:26;36.50;99.90
17740;DHT22;8990;33.226;-97.150;2022-07-22T00:28:55;36.50;99.90
17740;DHT22;8990;33.226;-97.150;2022-07-22T00:31:26;36.50;99.90
17740;DHT22;8990;33.226;-97.150;2022-07-22T00:33:55;36.50;99.90
17740;DHT22;8990;33.226;-97.150;2022-07-22T00:36:26;36.30;99.90
17740;DHT22;8990;33.226;-97.150;2022-07-22T00:38:55;36.30;99.90
17740;DHT22;8990;33.226;-97.150;2022-07-22T00:41:25;36.20;99.90
17740;DHT22;8990;33.226;-97.150;2022-07-22T00:43:57;36.00;99.90
17740;DHT22;8990;33.226;-97.150;2022-07-22T00:46:29;35.90;99.90
17740;DHT22;8990;33.226;-97.150;2022-07-22T00:48:59;35.80;99.90
17740;DHT22;8990;33.226;-97.150;2022-07-22T00:51:31;35.70;99.90
17740;DHT22;8990;33.226;-97.150;2022-07-22T00:54:01;35.70;99.90
17740;DHT22;8990;33.226;-97.150;2022-07-22T00:56:31;35.60;99.90
17740;DHT22;8990;33.226;-97.150;2022-07-22T00:59:02;35.40;99.90
17740;DHT22;8990;33.226;-97.150;2022-07-22T01:01:34;35.30;99.90
17740;DHT22;8990;33.226;-97.150;2022-07-22T01:04:03;35.30;99.90
17740;DHT22;8990;33.226;-97.150;2022-07-22T01:06:33;35.10;99.90
17740;DHT22;8990;33.226;-97.150;2022-07-22T01:09:03;35.10;99.90
17740;DHT22;8990;33.226;-97.150;2022-07-22T01:11:34;35.00;99.90
17740;DHT22;8990;33.226;-97.150;2022-07-22T01:14:03;35.10;99.90
17740;DHT22;8990;33.226;-97.150;2022-07-22T01:16:34;35.20;99.90
17740;DHT22;8990;33.226;-97.150;2022-07-22T01:19:05;35.20;99.90
17740;DHT22;8990;33.226;-97.150;2022-07-22T01:21:35;35.10;99.90
17740;DHT22;8990;33.226;-97.150;2022-07-22T01:24:07;35.10;99.90
17740;DHT22;8990;33.226;-97.150;2022-07-22T01:26:37;35.10;99.90
17740;DHT22;8990;33.226;-97.150;2022-07-22T01:29:07;35.10;99.90
17740;DHT22;8990;33.226;-97.150;2022-07-22T01:31:38;35.10;99.90
17740;DHT22;8990;33.226;-97.150;2022-07-22T01:34:07;35.00;99.90
17740;DHT22;8990;33.226;-97.150;2022-07-22T01:36:38;34.90;99.90
17740;DHT22;8990;33.226;-97.150;2022-07-22T01:39:08;34.80;99.90
17740;DHT22;8990;33.226;-97.150;2022-07-22T01:41:38;34.70;99.90
17740;DHT22;8990;33.226;-97.150;2022-07-22T01:44:12;34.60;99.90
17740;DHT22;8990;33.226;-97.150;2022-07-22T01:46:41;34.60;99.90
17740;DHT22;8990;33.226;-97.150;2022-07-22T01:49:10;34.50;99.90
17740;DHT22;8990;33.226;-97.150;2022-07-22T01:51:42;34.50;99.90
17740;DHT22;8990;33.226;-97.150;2022-07-22T01:54:12;34.60;99.90
17740;DHT22;8990;33.226;-97.150;2022-07-22T01:56:41;34.50;99.90
17740;DHT22;8990;33.226;-97.150;2022-07-22T01:59:10;34.50;99.90
17740;DHT22;8990;33.226;-97.150;2022-07-22T02:01:40;34.40;99.90
17740;DHT22;8990;33.226;-97.150;2022-07-22T02:04:09;34.40;99.90
17740;DHT22;8990;33.226;-97.150;2022-07-22T02:06:40;34.50;99.90
17740;DHT22;8990;33.226;-97.150;2022-07-22T02:09:10;34.50;99.90
17740;DHT22;8990;33.226;-97.150;2022-07-22T02:11:43;34.40;99.90
17740;DHT22;8990;33.226;-97.150;2022-07-22T02:14:14;34.40;99.90
17740;DHT22;8990;33.226;-97.150;2022-07-22T02:16:44;34.40;99.90
17740;DHT22;8990;33.226;-97.150;2022-07-22T02:19:13;34.40;99.90
17740;DHT22;8990;33.226;-97.150;2022-07-22T02:21:45;34.30;99.90
17740;DHT22;8990;33.226;-97.150;2022-07-22T02:24:14;34.30;99.90
17740;DHT22;8990;33.226;-97.150;2022-07-22T02:26:43;34.20;99.90
17740;DHT22;8990;33.226;-97.150;2022-07-22T02:29:13;34.20;99.90
17740;DHT22;8990;33.226;-97.150;2022-07-22T02:31:43;34.10;99.90
17740;DHT22;8990;33.226;-97.150;2022-07-22T02:34:12;34.00;99.90
17740;DHT22;8990;33.226;-97.150;2022-07-22T02:36:41;34.00;99.90
17740;DHT22;8990;33.226;-97.150;2022-07-22T02:39:12;33.90;99.90
17740;DHT22;8990;33.226;-97.150;2022-07-22T02:41:42;33.90;99.90
17740;DHT22;8990;33.226;-97.150;2022-07-22T02:44:12;33.80;99.90
17740;DHT22;8990;33.226;-97.150;2022-07-22T02:46:41;33.70;99.90
17740;DHT22;8990;33.226;-97.150;2022-07-22T02:49:16;33.60;99.90
17740;DHT22;8990;33.226;-97.150;2022-07-22T02:51:45;33.40;99.90
17740;DHT22;8990;33.226;-97.150;2022-07-22T02:54:16;33.40;99.90
17740;DHT22;8990;33.226;-97.150;2022-07-22T02:56:45;33.30;99.90
17740;DHT22;8990;33.226;-97.150;2022-07-22T02:59:15;33.20;99.90
17740;DHT22;8990;33.226;-97.150;2022-07-22T03:01:44;33.20;99.90
17740;DHT22;8990;33.226;-97.150;2022-07-22T03:04:13;33.10;99.90
17740;DHT22;8990;33.226;-97.150;2022-07-22T03:06:42;33.10;99.90
17740;DHT22;8990;33.226;-97.150;2022-07-22T03:09:17;33.10;99.90
17740;DHT22;8990;33.226;-97.150;2022-07-22T03:11:47;33.10;99.90
17740;DHT22;8990;33.226;-97.150;2022-07-22T03:14:16;33.00;99.90
17740;DHT22;8990;33.226;-97.150;2022-07-22T03:17:03;33.00;99.90
17740;DHT22;8990;33.226;-97.150;2022-07-22T03:19:32;33.00;99.90
17740;DHT22;8990;33.226;-97.150;2022-07-22T03:22:02;33.00;99.90
17740;DHT22;8990;33.226;-97.150;2022-07-22T03:24:35;33.00;99.90
17740;DHT22;8990;33.226;-97.150;2022-07-22T03:27:05;33.00;99.90
17740;DHT22;8990;33.226;-97.150;2022-07-22T03:29:34;32.80;99.90
17740;DHT22;8990;33.226;-97.150;2022-07-22T03:32:03;32.80;99.90
17740;DHT22;8990;33.226;-97.150;2022-07-22T03:34:44;32.60;99.90
17740;DHT22;8990;33.226;-97.150;2022-07-22T03:37:14;32.40;99.90
17740;DHT22;8990;33.226;-97.150;2022-07-22T03:39:45;32.40;99.90
17740;DHT22;8990;33.226;-97.150;2022-07-22T03:42:15;32.30;99.90
17740;DHT22;8990;33.226;-97.150;2022-07-22T03:44:48;32.30;99.90
17740;DHT22;8990;33.226;-97.150;2022-07-22T03:47:21;32.10;99.90
17740;DHT22;8990;33.226;-97.150;2022-07-22T03:49:51;32.10;99.90
17740;DHT22;8990;33.226;-97.150;2022-07-22T03:52:26;32.00;99.90
17740;DHT22;8990;33.226;-97.150;2022-07-22T03:55:01;31.80;99.90
17740;DHT22;8990;33.226;-97.150;2022-07-22T03:57:30;31.80;99.90
17740;DHT22;8990;33.226;-97.150;2022-07-22T04:00:05;31.90;99.90
17740;DHT22;8990;33.226;-97.150;2022-07-22T04:02:43;31.90;99.90
17740;DHT22;8990;33.226;-97.150;2022-07-22T04:05:21;31.90;99.90
17740;DHT22;8990;33.226;-97.150;2022-07-22T04:07:50;31.80;99.90
17740;DHT22;8990;33.226;-97.150;2022-07-22T04:10:21;31.60;99.90
17740;DHT22;8990;33.226;-97.150;2022-07-22T04:12:51;31.60;99.90
17740;DHT22;8990;33.226;-97.150;2022-07-22T04:15:32;31.50;99.90
17740;DHT22;8990;33.226;-97.150;2022-07-22T04:18:01;31.50;99.90
17740;DHT22;8990;33.226;-97.150;2022-07-22T04:20:31;31.40;99.90
17740;DHT22;8990;33.226;-97.150;2022-07-22T04:23:30;31.30;99.90
17740;DHT22;8990;33.226;-97.150;2022-07-22T04:26:16;31.30;99.90
17740;DHT22;8990;33.226;-97.150;2022-07-22T04:28:46;31.20;99.90
17740;DHT22;8990;33.226;-97.150;2022-07-22T04:31:15;31.10;99.90
17740;DHT22;8990;33.226;-97.150;2022-07-22T04:33:47;31.10;99.90
17740;DHT22;8990;33.226;-97.150;2022-07-22T04:36:16;31.10;99.90
17740;DHT22;8990;33.226;-97.150;2022-07-22T04:38:46;31.00;99.90
17740;DHT22;8990;33.226;-97.150;2022-07-22T04:41:18;30.90;99.90
17740;DHT22;8990;33.226;-97.150;2022-07-22T04:43:47;30.80;99.90
17740;DHT22;8990;33.226;-97.150;2022-07-22T04:46:17;30.90;99.90
17740;DHT22;8990;33.226;-97.150;2022-07-22T04:48:46;30.90;99.90
17740;DHT22;8990;33.226;-97.150;2022-07-22T04:51:16;30.90;99.90
17740;DHT22;8990;33.226;-97.150;2022-07-22T04:53:48;30.90;99.90
17740;DHT22;8990;33.226;-97.150;2022-07-22T04:56:22;30.80;99.90
17740;DHT22;8990;33.226;-97.150;2022-07-22T04:58:52;30.70;99.90
17740;DHT22;8990;33.226;-97.150;2022-07-22T05:01:23;30.60;99.90
17740;DHT22;8990;33.226;-97.150;2022-07-22T05:03:53;30.40;99.90
17740;DHT22;8990;33.226;-97.150;2022-07-22T05:06:23;30.40;99.90
17740;DHT22;8990;33.226;-97.150;2022-07-22T05:08:53;30.40;99.90
17740;DHT22;8990;33.226;-97.150;2022-07-22T05:11:24;30.30;99.90
17740;DHT22;8990;33.226;-97.150;2022-07-22T05:13:53;30.30;99.90
17740;DHT22;8990;33.226;-97.150;2022-07-22T05:16:23;30.20;99.90
17740;DHT22;8990;33.226;-97.150;2022-07-22T05:18:52;30.10;99.90
17740;DHT22;8990;33.226;-97.150;2022-07-22T05:21:22;30.20;99.90
17740;DHT22;8990;33.226;-97.150;2022-07-22T05:23:52;30.20;99.90
17740;DHT22;8990;33.226;-97.150;2022-07-22T05:26:23;30.30;99.90
17740;DHT22;8990;33.226;-97.150;2022-07-22T05:28:55;30.30;99.90
17740;DHT22;8990;33.226;-97.150;2022-07-22T05:31:27;30.20;99.90
17740;DHT22;8990;33.226;-97.150;2022-07-22T05:33:56;30.20;99.90
17740;DHT22;8990;33.226;-97.150;2022-07-22T05:36:35;30.20;99.90
17740;DHT22;8990;33.226;-97.150;2022-07-22T05:39:04;30.10;99.90
17740;DHT22;8990;33.226;-97.150;2022-07-22T05:41:35;30.00;99.90
17740;DHT22;8990;33.226;-97.150;2022-07-22T05:44:05;30.00;99.90
17740;DHT22;8990;33.226;-97.150;2022-07-22T05:46:34;29.90;99.90
17740;DHT22;8990;33.226;-97.150;2022-07-22T05:49:04;29.90;99.90
17740;DHT22;8990;33.226;-97.150;2022-07-22T05:51:42;29.80;99.90
17740;DHT22;8990;33.226;-97.150;2022-07-22T05:54:12;29.70;99.90
17740;DHT22;8990;33.226;-97.150;2022-07-22T05:56:43;29.70;99.90
17740;DHT22;8990;33.226;-97.150;2022-07-22T05:59:13;29.60;99.90
17740;DHT22;8990;33.226;-97.150;2022-07-22T06:01:43;29.60;99.90
17740;DHT22;8990;33.226;-97.150;2022-07-22T06:04:31;29.70;99.90
17740;DHT22;8990;33.226;-97.150;2022-07-22T06:07:01;29.70;99.90
17740;DHT22;8990;33.226;-97.150;2022-07-22T06:09:33;29.80;99.90
17740;DHT22;8990;33.226;-97.150;2022-07-22T06:12:05;29.80;99.90
17740;DHT22;8990;33.226;-97.150;2022-07-22T06:14:35;29.70;99.90
17740;DHT22;8990;33.226;-97.150;2022-07-22T06:17:04;29.60;99.90
17740;DHT22;8990;33.226;-97.150;2022-07-22T06:19:34;29.50;99.90
17740;DHT22;8990;33.226;-97.150;2022-07-22T06:22:03;29.50;99.90
17740;DHT22;8990;33.226;-97.150;2022-07-22T06:24:33;29.50;99.90
17740;DHT22;8990;33.226;-97.150;2022-07-22T06:27:02;29.60;99.90
17740;DHT22;8990;33.226;-97.150;2022-07-22T06:29:33;29.50;99.90
17740;DHT22;8990;33.226;-97.150;2022-07-22T06:32:03;29.50;99.90
17740;DHT22;8990;33.226;-97.150;2022-07-22T06:34:32;29.40;99.90
17740;DHT22;8990;33.226;-97.150;2022-07-22T06:37:05;29.40;99.90
17740;DHT22;8990;33.226;-97.150;2022-07-22T06:39:35;29.40;99.90
17740;DHT22;8990;33.226;-97.150;2022-07-22T06:42:12;29.40;99.90
17740;DHT22;8990;33.226;-97.150;2022-07-22T06:45:02;29.40;99.90
17740;DHT22;8990;33.226;-97.150;2022-07-22T06:47:55;29.40;99.90
17740;DHT22;8990;33.226;-97.150;2022-07-22T06:50:25;29.40;99.90
17740;DHT22;8990;33.226;-97.150;2022-07-22T06:52:55;29.40;99.90
17740;DHT22;8990;33.226;-97.150;2022-07-22T06:55:24;29.40;99.90
17740;DHT22;8990;33.226;-97.150;2022-07-22T06:58:07;29.30;99.90
17740;DHT22;8990;33.226;-97.150;2022-07-22T07:00:39;29.30;99.90
17740;DHT22;8990;33.226;-97.150;2022-07-22T07:03:28;29.30;99.90
17740;DHT22;8990;33.226;-97.150;2022-07-22T07:06:01;29.20;99.90
17740;DHT22;8990;33.226;-97.150;2022-07-22T07:08:44;29.20;99.90
17740;DHT22;8990;33.226;-97.150;2022-07-22T07:11:14;29.10;99.90
17740;DHT22;8990;33.226;-97.150;2022-07-22T07:13:44;29.10;99.90
17740;DHT22;8990;33.226;-97.150;2022-07-22T07:16:15;29.00;99.90
17740;DHT22;8990;33.226;-97.150;2022-07-22T07:18:44;29.10;99.90
17740;DHT22;8990;33.226;-97.150;2022-07-22T07:21:14;29.20;99.90
17740;DHT22;8990;33.226;-97.150;2022-07-22T07:23:45;29.10;99.90
17740;DHT22;8990;33.226;-97.150;2022-07-22T07:26:15;29.00;99.90
17740;DHT22;8990;33.226;-97.150;2022-07-22T07:28:44;29.10;99.90
17740;DHT22;8990;33.226;-97.150;2022-07-22T07:31:19;29.20;99.90
17740;DHT22;8990;33.226;-97.150;2022-07-22T07:33:52;29.10;99.90
17740;DHT22;8990;33.226;-97.150;2022-07-22T07:36:22;29.10;99.90
17740;DHT22;8990;33.226;-97.150;2022-07-22T07:38:51;29.10;99.90
17740;DHT22;8990;33.226;-97.150;2022-07-22T07:41:21;29.10;99.90
17740;DHT22;8990;33.226;-97.150;2022-07-22T07:43:51;29.10;99.90
17740;DHT22;8990;33.226;-97.150;2022-07-22T07:46:22;29.10;99.90
17740;DHT22;8990;33.226;-97.150;2022-07-22T07:48:52;29.00;99.90
17740;DHT22;8990;33.226;-97.150;2022-07-22T07:51:22;29.00;99.90
17740;DHT22;8990;33.226;-97.150;2022-07-22T07:53:51;28.90;99.90
17740;DHT22;8990;33.226;-97.150;2022-07-22T07:56:22;28.90;99.90
17740;DHT22;8990;33.226;-97.150;2022-07-22T07:58:51;28.90;99.90
17740;DHT22;8990;33.226;-97.150;2022-07-22T08:01:23;29.00;99.90
17740;DHT22;8990;33.226;-97.150;2022-07-22T08:03:53;29.00;99.90
17740;DHT22;8990;33.226;-97.150;2022-07-22T08:06:22;29.00;99.90
17740;DHT22;8990;33.226;-97.150;2022-07-22T08:08:51;29.00;99.90
17740;DHT22;8990;33.226;-97.150;2022-07-22T08:11:30;29.00;99.90
17740;DHT22;8990;33.226;-97.150;2022-07-22T08:14:28;29.00;99.90
17740;DHT22;8990;33.226;-97.150;2022-07-22T08:17:24;29.00;99.90
17740;DHT22;8990;33.226;-97.150;2022-07-22T08:19:53;29.00;99.90
17740;DHT22;8990;33.226;-97.150;2022-07-22T08:22:23;29.00;99.90
17740;DHT22;8990;33.226;-97.150;2022-07-22T08:24:53;29.00;99.90
17740;DHT22;8990;33.226;-97.150;2022-07-22T08:27:23;28.90;99.90
17740;DHT22;8990;33.226;-97.150;2022-07-22T08:29:52;28.90;99.90
17740;DHT22;8990;33.226;-97.150;2022-07-22T08:32:22;28.90;99.90
17740;DHT22;8990;33.226;-97.150;2022-07-22T08:34:52;28.90;99.90
17740;DHT22;8990;33.226;-97.150;2022-07-22T08:37:22;28.90;99.90
17740;DHT22;8990;33.226;-97.150;2022-07-22T08:39:52;28.90;99.90
17740;DHT22;8990;33.226;-97.150;2022-07-22T08:42:22;28.80;99.90
17740;DHT22;8990;33.226;-97.150;2022-07-22T08:44:53;28.80;99.90
17740;DHT22;8990;33.226;-97.150;2022-07-22T08:47:24;28.90;99.90
17740;DHT22;8990;33.226;-97.150;2022-07-22T08:50:15;28.90;99.90
17740;DHT22;8990;33.226;-97.150;2022-07-22T08:52:56;28.90;99.90
17740;DHT22;8990;33.226;-97.150;2022-07-22T08:55:25;29.00;99.90
17740;DHT22;8990;33.226;-97.150;2022-07-22T08:57:55;29.00;99.90
17740;DHT22;8990;33.226;-97.150;2022-07-22T09:00:26;29.00;99.90
17740;DHT22;8990;33.226;-97.150;2022-07-22T09:02:56;28.90;99.90
17740;DHT22;8990;33.226;-97.150;2022-07-22T09:05:33;28.90;99.90
17740;DHT22;8990;33.226;-97.150;2022-07-22T09:08:04;28.90;99.90
17740;DHT22;8990;33.226;-97.150;2022-07-22T09:10:53;28.90;99.90
17740;DHT22;8990;33.226;-97.150;2022-07-22T09:13:51;28.90;99.90
17740;DHT22;8990;33.226;-97.150;2022-07-22T09:16:43;28.80;99.90
17740;DHT22;8990;33.226;-97.150;2022-07-22T09:19:34;28.80;99.90
17740;DHT22;8990;33.226;-97.150;2022-07-22T09:22:38;28.80;99.90
17740;DHT22;8990;33.226;-97.150;2022-07-22T09:25:28;28.70;99.90
17740;DHT22;8990;33.226;-97.150;2022-07-22T09:28:24;28.80;99.90
17740;DHT22;8990;33.226;-97.150;2022-07-22T09:31:24;28.90;99.90
17740;DHT22;8990;33.226;-97.150;2022-07-22T09:33:57;28.90;99.90
17740;DHT22;8990;33.226;-97.150;2022-07-22T09:36:31;28.90;99.90
17740;DHT22;8990;33.226;-97.150;2022-07-22T09:39:00;29.00;99.90
17740;DHT22;8990;33.226;-97.150;2022-07-22T09:41:29;29.00;99.90
17740;DHT22;8990;33.226;-97.150;2022-07-22T09:44:22;28.90;99.90
17740;DHT22;8990;33.226;-97.150;2022-07-22T09:46:54;28.90;99.90
17740;DHT22;8990;33.226;-97.150;2022-07-22T09:49:45;28.90;99.90
17740;DHT22;8990;33.226;-97.150;2022-07-22T09:52:48;28.80;99.90
17740;DHT22;8990;33.226;-97.150;2022-07-22T09:55:27;28.70;99.90
17740;DHT22;8990;33.226;-97.150;2022-07-22T09:57:57;28.70;99.90
17740;DHT22;8990;33.226;-97.150;2022-07-22T10:00:28;28.70;99.90
17740;DHT22;8990;33.226;-97.150;2022-07-22T10:03:00;28.60;99.90
17740;DHT22;8990;33.226;-97.150;2022-07-22T10:05:35;28.60;99.90
17740;DHT22;8990;33.226;-97.150;2022-07-22T10:08:08;28.60;99.90
17740;DHT22;8990;33.226;-97.150;2022-07-22T10:10:39;28.60;99.90
17740;DHT22;8990;33.226;-97.150;2022-07-22T10:13:08;28.70;99.90
17740;DHT22;8990;33.226;-97.150;2022-07-22T10:15:38;28.70;99.90
17740;DHT22;8990;33.226;-97.150;2022-07-22T10:18:09;28.70;99.90
17740;DHT22;8990;33.226;-97.150;2022-07-22T10:20:43;28.80;99.90
17740;DHT22;8990;33.226;-97.150;2022-07-22T10:23:14;28.80;99.90
17740;DHT22;8990;33.226;-97.150;2022-07-22T10:25:52;28.70;99.90
17740;DHT22;8990;33.226;-97.150;2022-07-22T10:28:24;28.70;99.90
17740;DHT22;8990;33.226;-97.150;2022-07-22T10:31:07;28.60;99.90
17740;DHT22;8990;33.226;-97.150;2022-07-22T10:33:47;28.60;99.90
17740;DHT22;8990;33.226;-97.150;2022-07-22T10:36:31;28.60;99.90
17740;DHT22;8990;33.226;-97.150;2022-07-22T10:39:07;28.60;99.90
17740;DHT22;8990;33.226;-97.150;2022-07-22T10:41:39;28.50;99.90
17740;DHT22;8990;33.226;-97.150;2022-07-22T10:44:09;28.50;99.90
17740;DHT22;8990;33.226;-97.150;2022-07-22T10:46:53;28.50;99.90
17740;DHT22;8990;33.226;-97.150;2022-07-22T10:49:26;28.50;99.90
17740;DHT22;8990;33.226;-97.150;2022-07-22T10:52:11;28.50;99.90
17740;DHT22;8990;33.226;-97.150;2022-07-22T10:55:19;28.50;99.90
17740;DHT22;8990;33.226;-97.150;2022-07-22T10:57:49;28.50;99.90
17740;DHT22;8990;33.226;-97.150;2022-07-22T11:00:19;28.60;99.90
17740;DHT22;8990;33.226;-97.150;2022-07-22T11:02:48;28.60;99.90
17740;DHT22;8990;33.226;-97.150;2022-07-22T11:05:25;28.60;99.90
17740;DHT22;8990;33.226;-97.150;2022-07-22T11:07:56;28.70;99.90
17740;DHT22;8990;33.226;-97.150;2022-07-22T11:10:27;28.70;99.90
17740;DHT22;8990;33.226;-97.150;2022-07-22T11:12:56;28.60;99.90
17740;DHT22;8990;33.226;-97.150;2022-07-22T11:15:26;28.60;99.90
17740;DHT22;8990;33.226;-97.150;2022-07-22T11:17:56;28.60;99.90
17740;DHT22;8990;33.226;-97.150;2022-07-22T11:20:26;28.60;99.90
17740;DHT22;8990;33.226;-97.150;2022-07-22T11:22:55;28.60;99.90
17740;DHT22;8990;33.226;-97.150;2022-07-22T11:25:27;28.60;99.90
17740;DHT22;8990;33.226;-97.150;2022-07-22T11:27:57;28.60;99.90
17740;DHT22;8990;33.226;-97.150;2022-07-22T11:30:26;28.50;99.90
17740;DHT22;8990;33.226;-97.150;2022-07-22T11:32:55;28.50;99.90
17740;DHT22;8990;33.226;-97.150;2022-07-22T11:35:24;28.50;99.90
17740;DHT22;8990;33.226;-97.150;2022-07-22T11:37:57;28.50;99.90
17740;DHT22;8990;33.226;-97.150;2022-07-22T11:40:32;28.50;99.90
17740;DHT22;8990;33.226;-97.150;2022-07-22T11:43:03;28.60;99.90
17740;DHT22;8990;33.226;-97.150;2022-07-22T11:45:32;28.60;99.90
17740;DHT22;8990;33.226;-97.150;2022-07-22T11:48:08;28.60;99.90
17740;DHT22;8990;33.226;-97.150;2022-07-22T11:50:38;28.60;99.90
17740;DHT22;8990;33.226;-97.150;2022-07-22T11:53:08;28.60;99.90
17740;DHT22;8990;33.226;-97.150;2022-07-22T11:55:38;28.60;99.90
17740;DHT22;8990;33.226;-97.150;2022-07-22T11:58:09;28.60;99.90
17740;DHT22;8990;33.226;-97.150;2022-07-22T12:00:38;28.60;99.90
17740;DHT22;8990;33.226;-97.150;2022-07-22T12:03:07;28.60;99.90
17740;DHT22;8990;33.226;-97.150;2022-07-22T12:05:37;28.60;99.90
17740;DHT22;8990;33.226;-97.150;2022-07-22T12:08:06;28.60;99.90
17740;DHT22;8990;33.226;-97.150;2022-07-22T12:10:38;28.60;99.90
17740;DHT22;8990;33.226;-97.150;2022-07-22T12:13:11;28.60;99.90
17740;DHT22;8990;33.226;-97.150;2022-07-22T12:15:40;28.70;99.90
17740;DHT22;8990;33.226;-97.150;2022-07-22T12:18:20;28.70;99.90
17740;DHT22;8990;33.226;-97.150;2022-07-22T12:20:51;28.70;99.90
17740;DHT22;8990;33.226;-97.150;2022-07-22T12:23:21;28.70;99.90
17740;DHT22;8990;33.226;-97.150;2022-07-22T12:25:54;28.80;99.90
17740;DHT22;8990;33.226;-97.150;2022-07-22T12:28:24;28.90;99.90
17740;DHT22;8990;33.226;-97.150;2022-07-22T12:30:55;28.90;99.90
17740;DHT22;8990;33.226;-97.150;2022-07-22T12:33:24;29.00;99.90
17740;DHT22;8990;33.226;-97.150;2022-07-22T12:36:03;29.00;99.90
17740;DHT22;8990;33.226;-97.150;2022-07-22T12:38:33;29.10;99.90
17740;DHT22;8990;33.226;-97.150;2022-07-22T12:41:24;29.20;99.90
17740;DHT22;8990;33.226;-97.150;2022-07-22T12:43:56;29.20;99.90
17740;DHT22;8990;33.226;-97.150;2022-07-22T12:46:25;29.30;99.90
17740;DHT22;8990;33.226;-97.150;2022-07-22T12:48:55;29.40;99.90
17740;DHT22;8990;33.226;-97.150;2022-07-22T12:51:27;29.70;99.90
17740;DHT22;8990;33.226;-97.150;2022-07-22T12:53:57;30.00;99.90
17740;DHT22;8990;33.226;-97.150;2022-07-22T12:56:28;30.00;99.90
17740;DHT22;8990;33.226;-97.150;2022-07-22T12:58:58;29.90;99.90
17740;DHT22;8990;33.226;-97.150;2022-07-22T13:01:28;29.80;99.90
17740;DHT22;8990;33.226;-97.150;2022-07-22T13:03:56;29.70;99.90
17740;DHT22;8990;33.226;-97.150;2022-07-22T13:06:26;29.80;99.90
17740;DHT22;8990;33.226;-97.150;2022-07-22T13:08:55;29.90;99.90
17740;DHT22;8990;33.226;-97.150;2022-07-22T13:11:24;30.10;99.90
17740;DHT22;8990;33.226;-97.150;2022-07-22T13:13:54;30.20;99.90
17740;DHT22;8990;33.226;-97.150;2022-07-22T13:16:25;30.30;99.90
17740;DHT22;8990;33.226;-97.150;2022-07-22T13:18:54;30.40;99.90
17740;DHT22;8990;33.226;-97.150;2022-07-22T13:21:23;30.40;99.90
17740;DHT22;8990;33.226;-97.150;2022-07-22T13:23:52;30.50;99.90
17740;DHT22;8990;33.226;-97.150;2022-07-22T13:26:22;30.50;99.90
17740;DHT22;8990;33.226;-97.150;2022-07-22T13:28:53;30.50;99.90
17740;DHT22;8990;33.226;-97.150;2022-07-22T13:31:23;30.50;99.90
17740;DHT22;8990;33.226;-97.150;2022-07-22T13:33:53;30.60;99.90
17740;DHT22;8990;33.226;-97.150;2022-07-22T13:36:23;30.80;99.90
17740;DHT22;8990;33.226;-97.150;2022-07-22T13:38:52;30.90;99.90
17740;DHT22;8990;33.226;-97.150;2022-07-22T13:41:21;31.00;99.90
17740;DHT22;8990;33.226;-97.150;2022-07-22T13:43:50;31.20;99.90
17740;DHT22;8990;33.226;-97.150;2022-07-22T13:46:22;31.20;99.90
17740;DHT22;8990;33.226;-97.150;2022-07-22T13:48:53;31.00;99.90
17740;DHT22;8990;33.226;-97.150;2022-07-22T13:51:22;31.10;99.90
17740;DHT22;8990;33.226;-97.150;2022-07-22T13:53:51;31.10;99.90
17740;DHT22;8990;33.226;-97.150;2022-07-22T13:56:20;31.10;99.90
17740;DHT22;8990;33.226;-97.150;2022-07-22T13:58:50;31.00;99.90
17740;DHT22;8990;33.226;-97.150;2022-07-22T14:01:21;31.10;99.90
17740;DHT22;8990;33.226;-97.150;2022-07-22T14:03:50;31.20;99.90
17740;DHT22;8990;33.226;-97.150;2022-07-22T14:06:20;31.30;99.90
17740;DHT22;8990;33.226;-97.150;2022-07-22T14:08:49;31.20;99.90
17740;DHT22;8990;33.226;-97.150;2022-07-22T14:11:18;31.20;99.90
17740;DHT22;8990;33.226;-97.150;2022-07-22T14:13:47;31.30;99.90
17740;DHT22;8990;33.226;-97.150;2022-07-22T14:16:16;31.30;99.90
17740;DHT22;8990;33.226;-97.150;2022-07-22T14:19:07;31.20;99.90
17740;DHT22;8990;33.226;-97.150;2022-07-22T14:21:38;31.40;99.90
17740;DHT22;8990;33.226;-97.150;2022-07-22T14:24:08;31.50;99.90
17740;DHT22;8990;33.226;-97.150;2022-07-22T14:26:38;31.70;99.90
17740;DHT22;8990;33.226;-97.150;2022-07-22T14:29:09;31.70;99.90
17740;DHT22;8990;33.226;-97.150;2022-07-22T14:31:38;31.70;99.90
17740;DHT22;8990;33.226;-97.150;2022-07-22T14:34:09;31.90;99.90
17740;DHT22;8990;33.226;-97.150;2022-07-22T14:36:38;32.00;99.90
17740;DHT22;8990;33.226;-97.150;2022-07-22T14:39:07;32.10;99.90
17740;DHT22;8990;33.226;-97.150;2022-07-22T14:41:37;32.20;99.90
17740;DHT22;8990;33.226;-97.150;2022-07-22T14:44:06;32.40;99.90
17740;DHT22;8990;33.226;-97.150;2022-07-22T14:46:36;32.60;99.90
17740;DHT22;8990;33.226;-97.150;2022-07-22T14:49:05;32.80;99.90
17740;DHT22;8990;33.226;-97.150;2022-07-22T14:51:36;33.00;99.90
17740;DHT22;8990;33.226;-97.150;2022-07-22T14:54:05;33.20;99.90
17740;DHT22;8990;33.226;-97.150;2022-07-22T14:56:36;33.30;99.90
17740;DHT22;8990;33.226;-97.150;2022-07-22T14:59:05;33.50;99.90
17740;DHT22;8990;33.226;-97.150;2022-07-22T15:01:34;33.80;99.90
17740;DHT22;8990;33.226;-97.150;2022-07-22T15:04:04;34.00;99.90
17740;DHT22;8990;33.226;-97.150;2022-07-22T15:06:33;34.00;99.90
17740;DHT22;8990;33.226;-97.150;2022-07-22T15:09:04;34.00;99.90
17740;DHT22;8990;33.226;-97.150;2022-07-22T15:11:33;34.00;99.90
17740;DHT22;8990;33.226;-97.150;2022-07-22T15:14:02;33.90;99.90
17740;DHT22;8990;33.226;-97.150;2022-07-22T15:16:31;33.90;99.60
17740;DHT22;8990;33.226;-97.150;2022-07-22T15:19:00;33.80;99.20
17740;DHT22;8990;33.226;-97.150;2022-07-22T15:21:29;33.90;98.80
17740;DHT22;8990;33.226;-97.150;2022-07-22T15:24:00;34.00;98.50
17740;DHT22;8990;33.226;-97.150;2022-07-22T15:26:31;34.10;96.10
17740;DHT22;8990;33.226;-97.150;2022-07-22T15:29:00;34.20;95.40
17740;DHT22;8990;33.226;-97.150;2022-07-22T15:31:29;34.20;95.00
17740;DHT22;8990;33.226;-97.150;2022-07-22T15:33:59;34.30;95.00
17740;DHT22;8990;33.226;-97.150;2022-07-22T15:36:30;34.40;94.80
17740;DHT22;8990;33.226;-97.150;2022-07-22T15:38:59;34.50;95.00
17740;DHT22;8990;33.226;-97.150;2022-07-22T15:41:30;34.60;95.10
17740;DHT22;8990;33.226;-97.150;2022-07-22T15:43:59;34.70;95.80
17740;DHT22;8990;33.226;-97.150;2022-07-22T15:46:29;34.70;95.00